createdAt,value
2019-02-22T00:00:41.873Z,10.24
2019-02-22T00:01:41.836Z,10.23
2019-02-22T00:02:41.823Z,10.12
2019-02-22T00:03:41.844Z,10.27
2019-02-22T00:04:41.788Z,10.20
2019-02-22T00:05:41.781Z,10.10
2019-02-22T00:06:41.761Z,10.09
2019-02-22T00:07:41.755Z,10.10
2019-02-22T00:08:41.754Z,10.14
2019-02-22T00:09:49.020Z,10.05
2019-02-22T00:10:42.734Z,9.99
2019-02-22T00:11:41.707Z,10.02
2019-02-22T00:12:41.697Z,10.02
2019-02-22T00:13:41.701Z,10.01
2019-02-22T00:14:41.669Z,10.01
2019-02-22T00:15:41.715Z,10.02
2019-02-22T00:16:41.648Z,10.05
2019-02-22T00:17:41.661Z,10.03
2019-02-22T00:18:41.626Z,9.94
2019-02-22T00:19:41.626Z,10.05
2019-02-22T00:20:41.613Z,9.91
2019-02-22T00:21:41.638Z,9.94
2019-02-22T00:22:41.613Z,9.96
2019-02-22T00:23:41.569Z,9.88
2019-02-22T00:24:41.565Z,9.93
2019-02-22T00:25:41.550Z,9.94
2019-02-22T00:26:41.549Z,9.88
2019-02-22T00:27:41.625Z,9.91
2019-02-22T00:28:41.516Z,10.02
2019-02-22T00:29:41.524Z,9.96
2019-02-22T00:30:41.502Z,10.02
2019-02-22T00:31:41.483Z,9.90
2019-02-22T00:32:42.586Z,9.87
2019-02-22T00:33:41.522Z,9.96
2019-02-22T00:34:41.562Z,9.87
2019-02-22T00:35:41.505Z,10.09
2019-02-22T00:36:41.562Z,10.01
2019-02-22T00:37:41.417Z,9.93
2019-02-22T00:38:41.421Z,9.90
2019-02-22T00:39:41.452Z,9.93
2019-02-22T00:40:41.408Z,9.93
2019-02-22T00:41:41.376Z,9.91
2019-02-22T00:42:41.377Z,9.83
2019-02-22T00:43:41.358Z,9.93
2019-02-22T00:44:41.359Z,9.91
2019-02-22T00:45:41.400Z,9.93
2019-02-22T00:46:41.335Z,9.93
2019-02-22T00:47:41.386Z,10.02
2019-02-22T00:48:41.293Z,9.99
2019-02-22T00:49:41.289Z,9.96
2019-02-22T00:50:41.309Z,10.01
2019-02-22T00:51:41.294Z,9.99
2019-02-22T00:52:41.250Z,10.02
2019-02-22T00:53:41.275Z,9.88
2019-02-22T00:54:41.226Z,9.84
2019-02-22T00:55:41.220Z,10.06
2019-02-22T00:56:41.210Z,9.93
2019-02-22T00:57:41.403Z,9.91
2019-02-22T00:58:41.191Z,9.88
2019-02-22T00:59:41.205Z,9.91
2019-02-22T01:00:41.166Z,9.91
2019-02-22T01:01:41.152Z,9.78
2019-02-22T01:02:41.140Z,9.77
2019-02-22T01:03:41.180Z,9.77
2019-02-22T01:04:41.119Z,9.75
2019-02-22T01:05:41.111Z,9.75
2019-02-22T01:06:41.098Z,9.67
2019-02-22T01:07:41.098Z,9.66
2019-02-22T01:08:41.080Z,9.67
2019-02-22T01:09:41.097Z,9.66
2019-02-22T01:10:41.057Z,9.63
2019-02-22T01:11:41.037Z,9.69
2019-02-22T01:12:41.030Z,9.66
2019-02-22T01:13:41.040Z,9.66
2019-02-22T01:14:41.006Z,9.60
2019-02-22T01:15:41.076Z,9.59
2019-02-22T01:16:40.987Z,9.62
2019-02-22T01:17:40.997Z,9.52
2019-02-22T01:18:40.966Z,9.55
2019-02-22T01:19:40.954Z,9.55
2019-02-22T01:20:40.962Z,9.45
2019-02-22T01:21:40.961Z,9.51
2019-02-22T01:22:40.936Z,9.47
2019-02-22T01:23:40.909Z,9.47
2019-02-22T01:24:40.901Z,9.47
2019-02-22T01:25:40.891Z,9.40
2019-02-22T01:26:40.903Z,9.44
2019-02-22T01:27:40.928Z,9.40
2019-02-22T01:28:40.866Z,9.50
2019-02-22T01:29:40.848Z,9.50
2019-02-22T01:30:40.850Z,9.45
2019-02-22T01:31:40.830Z,9.45
2019-02-22T01:32:40.834Z,9.44
2019-02-22T01:33:40.840Z,9.47
2019-02-22T01:34:40.833Z,9.42
2019-02-22T01:35:40.778Z,9.34
2019-02-22T01:36:40.788Z,9.37
2019-02-22T01:37:40.757Z,9.37
2019-02-22T01:38:40.745Z,9.40
2019-02-22T01:39:40.770Z,9.30
2019-02-22T01:40:44.088Z,9.44
2019-02-22T01:41:40.708Z,9.48
2019-02-22T01:42:40.714Z,9.42
2019-02-22T01:43:40.687Z,9.40
2019-02-22T01:44:40.672Z,9.33
2019-02-22T01:45:40.718Z,9.32
2019-02-22T01:46:40.655Z,9.29
2019-02-22T01:47:40.641Z,9.29
2019-02-22T01:48:40.668Z,9.33
2019-02-22T01:49:40.628Z,9.37
2019-02-22T01:50:40.612Z,9.37
2019-02-22T01:51:40.631Z,9.37
2019-02-22T01:52:40.595Z,9.30
2019-02-22T01:53:40.581Z,9.33
2019-02-22T01:54:40.568Z,9.36
2019-02-22T01:55:40.553Z,9.33
2019-02-22T01:56:40.557Z,9.32
2019-02-22T01:57:40.574Z,9.36
2019-02-22T01:58:48.424Z,9.32
2019-02-22T01:59:41.506Z,9.32
2019-02-22T02:00:40.501Z,9.32
2019-02-22T02:01:40.491Z,9.27
2019-02-22T02:02:40.491Z,9.29
2019-02-22T02:03:40.506Z,9.24
2019-02-22T02:04:40.453Z,9.26
2019-02-22T02:05:40.441Z,9.27
2019-02-22T02:06:40.442Z,9.27
2019-02-22T02:07:40.427Z,9.33
2019-02-22T02:08:40.433Z,9.27
2019-02-22T02:09:40.446Z,9.29
2019-02-22T02:10:40.385Z,9.24
2019-02-22T02:11:40.378Z,9.30
2019-02-22T02:12:40.368Z,9.26
2019-02-22T02:13:40.378Z,9.23
2019-02-22T02:14:40.358Z,9.27
2019-02-22T02:15:40.366Z,9.15
2019-02-22T02:16:40.319Z,9.26
2019-02-22T02:17:40.312Z,9.15
2019-02-22T02:18:40.298Z,9.26
2019-02-22T02:19:40.287Z,9.27
2019-02-22T02:20:40.385Z,9.26
2019-02-22T02:21:40.311Z,9.18
2019-02-22T02:22:40.262Z,9.24
2019-02-22T02:23:40.252Z,9.23
2019-02-22T02:24:40.234Z,9.22
2019-02-22T02:25:40.221Z,9.29
2019-02-22T02:26:40.270Z,9.32
2019-02-22T02:27:40.387Z,9.29
2019-02-22T02:28:40.200Z,9.24
2019-02-22T02:29:40.175Z,9.29
2019-02-22T02:30:40.168Z,9.29
2019-02-22T02:31:40.192Z,9.29
2019-02-22T02:32:40.172Z,9.22
2019-02-22T02:33:40.191Z,9.23
2019-02-22T02:34:40.129Z,9.19
2019-02-22T02:35:40.159Z,9.26
2019-02-22T02:36:40.112Z,9.27
2019-02-22T02:37:40.085Z,9.22
2019-02-22T02:38:40.072Z,9.29
2019-02-22T02:39:40.107Z,9.26
2019-02-22T02:40:40.054Z,9.27
2019-02-22T02:41:40.062Z,9.26
2019-02-22T02:42:40.027Z,9.26
2019-02-22T02:43:40.030Z,9.32
2019-02-22T02:44:40.006Z,9.24
2019-02-22T02:45:40.068Z,9.27
2019-02-22T02:46:40.011Z,9.33
2019-02-22T02:47:39.975Z,9.26
2019-02-22T02:48:39.975Z,9.23
2019-02-22T02:49:39.959Z,9.30
2019-02-22T02:50:39.939Z,9.32
2019-02-22T02:51:39.964Z,9.36
2019-02-22T02:52:39.926Z,9.33
2019-02-22T02:53:39.950Z,9.29
2019-02-22T02:54:39.911Z,9.36
2019-02-22T02:55:39.920Z,9.27
2019-02-22T02:56:39.879Z,9.24
2019-02-22T02:57:39.925Z,9.32
2019-02-22T02:58:39.859Z,9.24
2019-02-22T02:59:39.839Z,9.30
2019-02-22T03:00:39.888Z,9.23
2019-02-22T03:01:39.821Z,9.24
2019-02-22T03:02:39.806Z,9.26
2019-02-22T03:03:39.846Z,9.24
2019-02-22T03:04:39.787Z,9.27
2019-02-22T03:05:39.785Z,9.23
2019-02-22T03:06:39.784Z,9.22
2019-02-22T03:07:39.755Z,9.29
2019-02-22T03:08:39.761Z,9.23
2019-02-22T03:09:39.764Z,9.16
2019-02-22T03:10:39.735Z,9.27
2019-02-22T03:11:39.703Z,9.26
2019-02-22T03:12:39.702Z,9.33
2019-02-22T03:13:39.700Z,9.29
2019-02-22T03:14:39.689Z,9.27
2019-02-22T03:15:39.700Z,9.23
2019-02-22T03:16:39.648Z,9.27
2019-02-22T03:17:39.644Z,9.18
2019-02-22T03:18:39.632Z,9.18
2019-02-22T03:19:39.621Z,9.18
2019-02-22T03:20:39.607Z,9.23
2019-02-22T03:21:39.632Z,9.22
2019-02-22T03:22:39.606Z,9.12
2019-02-22T03:23:39.584Z,9.18
2019-02-22T03:24:39.561Z,9.19
2019-02-22T03:25:39.574Z,9.18
2019-02-22T03:26:39.540Z,9.23
2019-02-22T03:27:39.594Z,9.24
2019-02-22T03:28:39.517Z,9.22
2019-02-22T03:29:39.513Z,9.18
2019-02-22T03:30:39.503Z,9.09
2019-02-22T03:31:39.485Z,9.09
2019-02-22T03:32:39.474Z,9.16
2019-02-22T03:33:39.516Z,9.11
2019-02-22T03:34:39.452Z,9.11
2019-02-22T03:35:39.443Z,9.14
2019-02-22T03:36:39.424Z,9.16
2019-02-22T03:37:39.417Z,9.12
2019-02-22T03:38:39.402Z,9.15
2019-02-22T03:39:39.462Z,9.09
2019-02-22T03:40:39.378Z,9.08
2019-02-22T03:41:39.371Z,9.04
2019-02-22T03:42:39.361Z,9.11
2019-02-22T03:43:39.352Z,9.03
2019-02-22T03:44:39.340Z,8.95
2019-02-22T03:45:39.381Z,9.03
2019-02-22T03:46:39.316Z,8.99
2019-02-22T03:47:39.357Z,8.95
2019-02-22T03:48:39.299Z,8.95
2019-02-22T03:49:39.282Z,8.99
2019-02-22T03:50:39.268Z,8.99
2019-02-22T03:51:39.338Z,8.96
2019-02-22T03:52:39.255Z,8.93
2019-02-22T03:53:39.240Z,8.89
2019-02-22T03:54:39.228Z,8.86
2019-02-22T03:55:39.213Z,8.90
2019-02-22T03:56:39.203Z,8.88
2019-02-22T03:57:39.240Z,8.95
2019-02-22T03:58:39.185Z,8.88
2019-02-22T03:59:39.170Z,8.89
2019-02-22T04:00:39.158Z,8.88
2019-02-22T04:01:39.152Z,8.81
2019-02-22T04:02:39.141Z,8.85
2019-02-22T04:03:39.159Z,8.81
2019-02-22T04:04:39.120Z,8.81
2019-02-22T04:05:39.106Z,8.85
2019-02-22T04:06:39.091Z,8.74
2019-02-22T04:07:39.080Z,8.67
2019-02-22T04:08:39.066Z,8.68
2019-02-22T04:09:39.099Z,8.67
2019-02-22T04:10:39.061Z,8.63
2019-02-22T04:11:45.631Z,8.63
2019-02-22T04:12:40.028Z,8.74
2019-02-22T04:13:39.031Z,8.65
2019-02-22T04:14:39.001Z,8.68
2019-02-22T04:15:39.036Z,8.67
2019-02-22T04:16:38.980Z,8.63
2019-02-22T04:17:38.977Z,8.63
2019-02-22T04:18:38.957Z,8.62
2019-02-22T04:19:38.950Z,8.63
2019-02-22T04:20:38.940Z,8.63
2019-02-22T04:21:38.969Z,8.63
2019-02-22T04:22:38.912Z,8.65
2019-02-22T04:23:38.909Z,8.63
2019-02-22T04:24:38.888Z,8.67
2019-02-22T04:25:38.876Z,8.60
2019-02-22T04:26:38.868Z,8.55
2019-02-22T04:27:38.927Z,8.56
2019-02-22T04:28:38.849Z,8.53
2019-02-22T04:29:38.883Z,8.59
2019-02-22T04:30:38.828Z,8.60
2019-02-22T04:31:38.823Z,8.53
2019-02-22T04:32:38.863Z,8.67
2019-02-22T04:33:38.827Z,8.56
2019-02-22T04:34:38.783Z,8.62
2019-02-22T04:35:38.773Z,8.62
2019-02-22T04:36:38.760Z,8.62
2019-02-22T04:37:38.787Z,8.67
2019-02-22T04:38:38.737Z,8.56
2019-02-22T04:39:38.765Z,8.53
2019-02-22T04:40:38.723Z,8.56
2019-02-22T04:41:38.705Z,8.55
2019-02-22T04:42:38.705Z,8.59
2019-02-22T04:43:38.701Z,8.60
2019-02-22T04:44:38.665Z,8.53
2019-02-22T04:45:38.712Z,8.59
2019-02-22T04:46:38.663Z,8.56
2019-02-22T04:47:38.634Z,8.56
2019-02-22T04:48:38.654Z,8.56
2019-02-22T04:49:38.609Z,8.50
2019-02-22T04:50:38.605Z,8.56
2019-02-22T04:51:38.770Z,8.56
2019-02-22T04:52:38.582Z,8.56
2019-02-22T04:53:38.566Z,8.56
2019-02-22T04:54:38.562Z,8.56
2019-02-22T04:55:38.564Z,8.55
2019-02-22T04:56:38.558Z,8.59
2019-02-22T04:57:38.560Z,8.60
2019-02-22T04:58:38.552Z,8.62
2019-02-22T04:59:38.500Z,8.53
2019-02-22T05:00:38.492Z,8.55
2019-02-22T05:01:38.479Z,8.56
2019-02-22T05:02:38.473Z,8.57
2019-02-22T05:03:38.488Z,8.55
2019-02-22T05:04:38.534Z,8.60
2019-02-22T05:05:38.436Z,8.53
2019-02-22T05:06:38.433Z,8.55
2019-02-22T05:07:38.421Z,8.59
2019-02-22T05:08:38.402Z,8.60
2019-02-22T05:09:38.457Z,8.56
2019-02-22T05:10:38.388Z,8.62
2019-02-22T05:11:38.372Z,8.62
2019-02-22T05:12:38.442Z,8.56
2019-02-22T05:13:38.354Z,8.56
2019-02-22T05:14:38.349Z,8.53
2019-02-22T05:15:38.366Z,8.56
2019-02-22T05:16:38.309Z,8.63
2019-02-22T05:17:38.305Z,8.62
2019-02-22T05:18:38.397Z,8.62
2019-02-22T05:19:38.304Z,8.60
2019-02-22T05:20:38.268Z,8.56
2019-02-22T05:21:38.310Z,8.62
2019-02-22T05:22:38.254Z,8.57
2019-02-22T05:23:38.232Z,8.60
2019-02-22T05:24:38.249Z,8.59
2019-02-22T05:25:38.214Z,8.53
2019-02-22T05:26:38.234Z,8.60
2019-02-22T05:27:38.254Z,8.63
2019-02-22T05:28:38.182Z,8.56
2019-02-22T05:29:38.173Z,8.52
2019-02-22T05:30:38.167Z,8.57
2019-02-22T05:31:38.144Z,8.60
2019-02-22T05:32:38.134Z,8.55
2019-02-22T05:33:38.167Z,8.60
2019-02-22T05:34:38.143Z,8.57
2019-02-22T05:35:38.127Z,8.50
2019-02-22T05:36:38.093Z,8.56
2019-02-22T05:37:38.077Z,8.56
2019-02-22T05:38:38.070Z,8.62
2019-02-22T05:39:38.342Z,8.59
2019-02-22T05:40:38.049Z,8.63
2019-02-22T05:41:38.039Z,8.57
2019-02-22T05:42:38.082Z,8.55
2019-02-22T05:43:38.024Z,8.59
2019-02-22T05:44:37.998Z,8.53
2019-02-22T05:45:38.025Z,8.60
2019-02-22T05:46:37.980Z,8.55
2019-02-22T05:47:38.019Z,8.63
2019-02-22T05:48:38.926Z,8.56
2019-02-22T05:49:38.037Z,8.57
2019-02-22T05:50:37.945Z,8.57
2019-02-22T05:51:37.958Z,8.57
2019-02-22T05:52:37.912Z,8.53
2019-02-22T05:53:37.947Z,8.65
2019-02-22T05:54:37.891Z,8.63
2019-02-22T05:55:37.878Z,8.59
2019-02-22T05:56:37.865Z,8.55
2019-02-22T05:57:37.904Z,8.59
2019-02-22T05:58:37.846Z,8.62
2019-02-22T05:59:37.889Z,8.70
2019-02-22T06:00:37.824Z,8.57
2019-02-22T06:01:37.815Z,8.52
2019-02-22T06:02:37.801Z,8.57
2019-02-22T06:03:37.850Z,8.53
2019-02-22T06:04:37.780Z,8.67
2019-02-22T06:05:37.769Z,8.71
2019-02-22T06:06:37.781Z,8.57
2019-02-22T06:07:37.748Z,8.62
2019-02-22T06:08:37.773Z,8.60
2019-02-22T06:09:37.770Z,8.62
2019-02-22T06:10:37.719Z,8.57
2019-02-22T06:11:37.699Z,8.65
2019-02-22T06:12:37.722Z,8.62
2019-02-22T06:13:37.686Z,8.67
2019-02-22T06:14:37.665Z,8.57
2019-02-22T06:15:37.707Z,8.67
2019-02-22T06:16:37.641Z,8.72
2019-02-22T06:17:37.630Z,8.59
2019-02-22T06:18:37.650Z,8.55
2019-02-22T06:19:37.609Z,8.59
2019-02-22T06:20:37.603Z,8.60
2019-02-22T06:21:37.621Z,8.57
2019-02-22T06:22:37.585Z,8.56
2019-02-22T06:23:37.566Z,8.57
2019-02-22T06:24:37.626Z,8.62
2019-02-22T06:25:37.544Z,8.62
2019-02-22T06:26:37.566Z,8.59
2019-02-22T06:27:37.585Z,8.63
2019-02-22T06:28:37.518Z,8.63
2019-02-22T06:29:37.517Z,8.62
2019-02-22T06:30:37.540Z,8.60
2019-02-22T06:31:37.476Z,8.60
2019-02-22T06:32:37.467Z,8.62
2019-02-22T06:33:37.485Z,8.60
2019-02-22T06:34:37.446Z,8.68
2019-02-22T06:35:37.435Z,8.65
2019-02-22T06:36:37.450Z,8.65
2019-02-22T06:37:37.421Z,8.63
2019-02-22T06:38:37.405Z,8.63
2019-02-22T06:39:37.444Z,8.65
2019-02-22T06:40:37.376Z,8.62
2019-02-22T06:41:37.367Z,8.67
2019-02-22T06:43:38.342Z,8.63
2019-02-22T06:44:37.331Z,8.60
2019-02-22T06:45:37.374Z,8.67
2019-02-22T06:46:37.317Z,8.60
2019-02-22T06:47:37.302Z,8.68
2019-02-22T06:48:37.334Z,8.65
2019-02-22T06:49:37.277Z,8.65
2019-02-22T06:50:37.265Z,8.67
2019-02-22T06:51:37.314Z,8.67
2019-02-22T06:52:37.243Z,8.63
2019-02-22T06:53:37.234Z,8.62
2019-02-22T06:54:37.264Z,8.68
2019-02-22T06:55:37.209Z,8.67
2019-02-22T06:56:37.200Z,8.71
2019-02-22T06:57:37.224Z,8.63
2019-02-22T06:58:37.219Z,8.65
2019-02-22T06:59:37.165Z,8.72
2019-02-22T07:00:37.192Z,8.70
2019-02-22T07:01:37.143Z,8.68
2019-02-22T07:02:37.132Z,8.71
2019-02-22T07:03:37.174Z,8.71
2019-02-22T07:04:37.121Z,8.74
2019-02-22T07:05:37.100Z,8.70
2019-02-22T07:06:37.118Z,8.70
2019-02-22T07:07:37.077Z,8.71
2019-02-22T07:08:37.076Z,8.65
2019-02-22T07:09:37.086Z,8.68
2019-02-22T07:10:37.049Z,8.71
2019-02-22T07:11:37.910Z,8.68
2019-02-22T07:12:37.096Z,8.77
2019-02-22T07:13:37.026Z,8.67
2019-02-22T07:14:37.023Z,8.68
2019-02-22T07:15:37.043Z,8.81
2019-02-22T07:16:36.987Z,8.83
2019-02-22T07:17:36.993Z,8.74
2019-02-22T07:18:36.963Z,8.72
2019-02-22T07:19:36.955Z,8.85
2019-02-22T07:20:36.964Z,8.80
2019-02-22T07:21:51.476Z,8.74
2019-02-22T07:22:37.911Z,8.85
2019-02-22T07:23:36.902Z,8.83
2019-02-22T07:24:36.890Z,8.85
2019-02-22T07:25:36.986Z,8.83
2019-02-22T07:26:36.910Z,8.80
2019-02-22T07:27:36.917Z,8.77
2019-02-22T07:28:36.854Z,8.83
2019-02-22T07:29:36.836Z,8.90
2019-02-22T07:30:36.827Z,8.89
2019-02-22T07:31:36.821Z,8.83
2019-02-22T07:32:36.801Z,8.75
2019-02-22T07:33:36.855Z,8.78
2019-02-22T07:34:36.796Z,8.75
2019-02-22T07:35:36.785Z,8.85
2019-02-22T07:36:36.767Z,8.80
2019-02-22T07:37:36.750Z,8.90
2019-02-22T07:38:36.741Z,8.75
2019-02-22T07:39:36.808Z,8.83
2019-02-22T07:40:36.724Z,8.88
2019-02-22T07:41:36.704Z,8.86
2019-02-22T07:42:36.719Z,8.89
2019-02-22T07:43:36.684Z,8.88
2019-02-22T07:44:36.669Z,8.92
2019-02-22T07:45:36.706Z,8.88
2019-02-22T07:46:36.653Z,8.86
2019-02-22T07:47:36.652Z,8.85
2019-02-22T07:48:36.625Z,8.92
2019-02-22T07:49:36.614Z,8.88
2019-02-22T07:50:36.603Z,8.89
2019-02-22T07:51:36.641Z,8.90
2019-02-22T07:52:36.585Z,8.93
2019-02-22T07:53:36.639Z,8.88
2019-02-22T07:54:36.561Z,8.89
2019-02-22T07:55:36.551Z,8.86
2019-02-22T07:56:36.537Z,8.85
2019-02-22T07:57:36.559Z,8.90
2019-02-22T07:58:36.517Z,8.95
2019-02-22T07:59:36.571Z,8.93
2019-02-22T08:00:36.530Z,8.92
2019-02-22T08:01:46.873Z,8.90
2019-02-22T08:02:37.521Z,8.89
2019-02-22T08:03:37.434Z,8.88
2019-02-22T08:04:36.495Z,8.88
2019-02-22T08:05:36.444Z,8.89
2019-02-22T08:06:36.470Z,8.93
2019-02-22T08:07:36.414Z,8.96
2019-02-22T08:08:36.455Z,8.95
2019-02-22T08:09:36.399Z,8.96
2019-02-22T08:10:36.387Z,8.96
2019-02-22T08:11:36.374Z,8.96
2019-02-22T08:12:36.405Z,8.93
2019-02-22T08:13:36.350Z,8.93
2019-02-22T08:14:36.382Z,8.99
2019-02-22T08:15:36.330Z,8.96
2019-02-22T08:16:36.316Z,8.98
2019-02-22T08:17:36.310Z,8.98
2019-02-22T08:18:36.335Z,8.96
2019-02-22T08:19:36.285Z,8.96
2019-02-22T08:20:36.577Z,8.96
2019-02-22T08:21:36.261Z,8.95
2019-02-22T08:22:36.251Z,8.95
2019-02-22T08:23:36.248Z,8.96
2019-02-22T08:24:36.284Z,8.98
2019-02-22T08:25:36.277Z,9.03
2019-02-22T08:26:36.258Z,8.98
2019-02-22T08:27:36.197Z,8.99
2019-02-22T08:28:36.189Z,8.98
2019-02-22T08:29:38.213Z,8.99
2019-02-22T08:30:36.177Z,8.95
2019-02-22T08:31:36.193Z,8.95
2019-02-22T08:32:36.187Z,8.99
2019-02-22T08:33:36.133Z,8.96
2019-02-22T08:34:36.134Z,9.03
2019-02-22T08:35:36.112Z,8.93
2019-02-22T08:36:36.121Z,8.99
2019-02-22T08:37:36.085Z,8.99
2019-02-22T08:38:36.123Z,9.08
2019-02-22T08:39:36.064Z,9.01
2019-02-22T08:40:36.061Z,8.96
2019-02-22T08:41:36.068Z,9.04
2019-02-22T08:42:36.041Z,9.08
2019-02-22T08:43:36.024Z,9.09
2019-02-22T08:44:36.109Z,9.12
2019-02-22T08:45:36.002Z,9.15
2019-02-22T08:46:35.997Z,9.12
2019-02-22T08:47:35.991Z,9.03
2019-02-22T08:48:35.966Z,9.11
2019-02-22T08:49:35.975Z,9.14
2019-02-22T08:50:35.986Z,9.18
2019-02-22T08:51:35.942Z,9.18
2019-02-22T08:52:35.935Z,9.15
2019-02-22T08:53:35.924Z,9.15
2019-02-22T08:54:46.527Z,9.11
2019-02-22T08:55:37.244Z,9.14
2019-02-22T08:56:35.961Z,9.16
2019-02-22T08:57:35.886Z,9.03
2019-02-22T08:58:35.860Z,9.16
2019-02-22T08:59:35.849Z,9.16
2019-02-22T09:00:35.845Z,9.14
2019-02-22T09:01:35.892Z,9.15
2019-02-22T09:02:35.832Z,9.09
2019-02-22T09:03:35.882Z,9.15
2019-02-22T09:04:35.818Z,9.15
2019-02-22T09:05:35.824Z,9.18
2019-02-22T09:06:35.811Z,9.15
2019-02-22T09:07:35.823Z,9.09
2019-02-22T09:08:35.795Z,9.16
2019-02-22T09:09:35.749Z,9.22
2019-02-22T09:10:35.734Z,9.23
2019-02-22T09:11:35.733Z,9.18
2019-02-22T09:12:35.704Z,9.23
2019-02-22T09:13:43.533Z,9.23
2019-02-22T09:14:36.698Z,9.14
2019-02-22T09:15:35.671Z,9.18
2019-02-22T09:16:35.664Z,9.26
2019-02-22T09:17:35.661Z,9.15
2019-02-22T09:18:35.640Z,9.26
2019-02-22T09:19:35.714Z,9.26
2019-02-22T09:20:35.627Z,9.18
2019-02-22T09:21:35.608Z,9.23
2019-02-22T09:22:35.605Z,9.23
2019-02-22T09:23:35.586Z,9.33
2019-02-22T09:24:35.571Z,9.34
2019-02-22T09:25:35.609Z,9.32
2019-02-22T09:26:35.550Z,9.32
2019-02-22T09:27:35.537Z,9.24
2019-02-22T09:28:35.526Z,9.26
2019-02-22T09:29:35.518Z,9.30
2019-02-22T09:30:35.513Z,9.30
2019-02-22T09:31:35.540Z,9.26
2019-02-22T09:32:35.497Z,9.34
2019-02-22T09:33:35.483Z,9.30
2019-02-22T09:34:35.487Z,9.34
2019-02-22T09:35:35.902Z,9.36
2019-02-22T09:36:35.440Z,9.42
2019-02-22T09:37:35.563Z,9.45
2019-02-22T09:38:35.420Z,9.45
2019-02-22T09:39:35.434Z,9.45
2019-02-22T09:40:35.420Z,9.41
2019-02-22T09:41:35.390Z,9.47
2019-02-22T09:42:35.376Z,9.52
2019-02-22T09:43:35.412Z,9.50
2019-02-22T09:44:35.353Z,9.60
2019-02-22T09:45:35.390Z,9.69
2019-02-22T09:46:35.329Z,9.57
2019-02-22T09:47:35.320Z,9.62
2019-02-22T09:48:35.394Z,9.80
2019-02-22T09:49:35.343Z,9.75
2019-02-22T09:50:35.285Z,9.84
2019-02-22T09:51:35.292Z,9.99
2019-02-22T09:52:35.265Z,9.94
2019-02-22T09:53:35.266Z,10.01
2019-02-22T09:54:35.258Z,10.02
2019-02-22T09:55:35.283Z,10.05
2019-02-22T09:56:35.218Z,9.99
2019-02-22T09:57:35.210Z,9.99
2019-02-22T09:58:35.194Z,10.14
2019-02-22T09:59:35.183Z,10.16
2019-02-22T10:00:35.211Z,10.17
2019-02-22T10:01:35.199Z,10.28
2019-02-22T10:02:35.150Z,10.24
2019-02-22T10:03:35.139Z,10.17
2019-02-22T10:04:35.127Z,10.28
2019-02-22T10:05:35.117Z,10.30
2019-02-22T10:06:35.132Z,10.28
2019-02-22T10:07:35.133Z,10.39
2019-02-22T10:08:35.081Z,10.42
2019-02-22T10:09:35.076Z,10.39
2019-02-22T10:10:35.066Z,10.43
2019-02-22T10:11:35.048Z,10.62
2019-02-22T10:12:35.054Z,10.58
2019-02-22T10:13:35.056Z,10.65
2019-02-22T10:14:35.018Z,10.67
2019-02-22T10:15:35.003Z,10.73
2019-02-22T10:16:34.992Z,10.73
2019-02-22T10:17:34.978Z,10.64
2019-02-22T10:18:35.009Z,10.78
2019-02-22T10:19:35.116Z,10.76
2019-02-22T10:20:34.945Z,10.76
2019-02-22T10:21:34.933Z,10.83
2019-02-22T10:22:34.922Z,10.82
2019-02-22T10:23:34.910Z,10.90
2019-02-22T10:24:34.927Z,10.91
2019-02-22T10:25:34.964Z,10.85
2019-02-22T10:26:34.876Z,10.79
2019-02-22T10:27:34.869Z,10.80
2019-02-22T10:28:34.860Z,10.85
2019-02-22T10:29:34.846Z,10.85
2019-02-22T10:30:34.880Z,10.87
2019-02-22T10:31:34.857Z,10.90
2019-02-22T10:32:34.813Z,10.79
2019-02-22T10:33:36.849Z,10.75
2019-02-22T10:34:34.795Z,10.83
2019-02-22T10:35:34.782Z,10.82
2019-02-22T10:36:44.673Z,10.82
2019-02-22T10:37:35.810Z,10.83
2019-02-22T10:38:35.969Z,10.76
2019-02-22T10:39:34.740Z,10.65
2019-02-22T10:40:34.719Z,10.68
2019-02-22T10:41:34.710Z,10.72
2019-02-22T10:42:34.695Z,10.73
2019-02-22T10:43:34.754Z,10.70
2019-02-22T10:44:34.732Z,10.75
2019-02-22T10:45:36.824Z,10.67
2019-02-22T10:46:34.738Z,10.75
2019-02-22T10:47:34.640Z,10.73
2019-02-22T10:48:34.629Z,10.76
2019-02-22T10:49:34.660Z,10.78
2019-02-22T10:50:34.633Z,10.76
2019-02-22T10:51:34.594Z,10.82
2019-02-22T10:52:34.597Z,10.76
2019-02-22T10:53:34.572Z,10.83
2019-02-22T10:54:34.562Z,10.90
2019-02-22T10:55:34.715Z,10.86
2019-02-22T10:56:34.562Z,10.83
2019-02-22T10:57:34.525Z,10.91
2019-02-22T10:58:34.516Z,10.98
2019-02-22T10:59:34.507Z,10.98
2019-02-22T11:00:34.497Z,10.95
2019-02-22T11:01:34.530Z,11.04
2019-02-22T11:02:34.517Z,10.98
2019-02-22T11:03:34.457Z,11.00
2019-02-22T11:04:34.458Z,11.03
2019-02-22T11:05:34.441Z,11.09
2019-02-22T11:06:34.453Z,11.11
2019-02-22T11:07:36.990Z,11.05
2019-02-22T11:08:34.401Z,11.00
2019-02-22T11:09:34.530Z,10.94
2019-02-22T11:10:34.412Z,11.01
2019-02-22T11:11:34.378Z,11.01
2019-02-22T11:12:34.358Z,11.12
2019-02-22T11:13:34.415Z,11.19
2019-02-22T11:14:34.331Z,11.22
2019-02-22T11:15:34.327Z,11.22
2019-02-22T11:16:34.347Z,11.25
2019-02-22T11:17:34.295Z,11.43
2019-02-22T11:18:34.287Z,11.43
2019-02-22T11:19:34.326Z,11.43
2019-02-22T11:20:34.263Z,11.45
2019-02-22T11:21:34.318Z,11.41
2019-02-22T11:22:34.241Z,11.38
2019-02-22T11:23:34.229Z,11.46
2019-02-22T11:24:34.217Z,11.51
2019-02-22T11:25:34.260Z,11.49
2019-02-22T11:26:34.195Z,11.49
2019-02-22T11:27:34.215Z,11.55
2019-02-22T11:28:34.176Z,11.54
2019-02-22T11:29:34.164Z,11.51
2019-02-22T11:30:34.150Z,11.56
2019-02-22T11:31:34.180Z,11.54
2019-02-22T11:32:34.138Z,11.59
2019-02-22T11:33:34.137Z,11.67
2019-02-22T11:34:34.105Z,11.69
2019-02-22T11:35:34.094Z,11.66
2019-02-22T11:36:34.104Z,11.76
2019-02-22T11:37:34.107Z,11.71
2019-02-22T11:38:34.114Z,11.67
2019-02-22T11:39:34.071Z,11.80
2019-02-22T11:40:34.049Z,11.79
2019-02-22T11:41:34.029Z,11.74
2019-02-22T11:42:34.019Z,11.88
2019-02-22T11:43:34.042Z,11.73
2019-02-22T11:44:40.271Z,11.70
2019-02-22T11:45:35.034Z,11.79
2019-02-22T11:46:33.990Z,11.80
2019-02-22T11:47:33.964Z,11.97
2019-02-22T11:48:33.956Z,12.07
2019-02-22T11:49:33.974Z,12.15
2019-02-22T11:50:33.935Z,12.25
2019-02-22T11:51:33.949Z,12.32
2019-02-22T11:52:33.911Z,12.36
2019-02-22T11:53:33.897Z,12.25
2019-02-22T11:54:33.888Z,12.36
2019-02-22T11:55:33.921Z,12.44
2019-02-22T11:56:33.875Z,12.40
2019-02-22T11:57:33.875Z,12.47
2019-02-22T11:58:33.837Z,12.44
2019-02-22T11:59:33.832Z,12.51
2019-02-22T12:00:33.817Z,12.50
2019-02-22T12:01:33.859Z,12.55
2019-02-22T12:02:33.801Z,12.59
2019-02-22T12:03:33.826Z,12.63
2019-02-22T12:04:33.775Z,12.68
2019-02-22T12:05:33.762Z,12.68
2019-02-22T12:06:33.765Z,12.69
2019-02-22T12:07:33.780Z,12.66
2019-02-22T12:08:33.839Z,12.69
2019-02-22T12:09:33.736Z,12.62
2019-02-22T12:10:33.716Z,12.80
2019-02-22T12:11:33.693Z,12.93
2019-02-22T12:12:33.692Z,12.95
2019-02-22T12:13:33.708Z,13.04
2019-02-22T12:14:33.783Z,13.04
2019-02-22T12:15:34.658Z,13.16
2019-02-22T12:16:33.641Z,13.17
2019-02-22T12:17:33.631Z,13.38
2019-02-22T12:18:33.635Z,13.19
2019-02-22T12:19:33.667Z,13.24
2019-02-22T12:20:33.599Z,13.23
2019-02-22T12:21:33.605Z,13.02
2019-02-22T12:22:33.586Z,12.90
2019-02-22T12:23:33.587Z,12.88
2019-02-22T12:24:33.554Z,12.90
2019-02-22T12:25:33.691Z,12.87
2019-02-22T12:26:33.533Z,12.87
2019-02-22T12:27:33.527Z,12.81
2019-02-22T12:28:33.519Z,12.63
2019-02-22T12:29:33.535Z,12.68
2019-02-22T12:30:33.491Z,12.71
2019-02-22T12:31:33.529Z,12.62
2019-02-22T12:32:33.469Z,12.68
2019-02-22T12:33:33.461Z,12.73
2019-02-22T12:34:33.439Z,12.66
2019-02-22T12:35:33.459Z,12.95
2019-02-22T12:36:33.543Z,13.11
2019-02-22T12:37:33.495Z,13.32
2019-02-22T12:38:33.397Z,13.45
2019-02-22T12:39:33.404Z,13.38
2019-02-22T12:40:33.371Z,13.45
2019-02-22T12:41:33.367Z,13.39
2019-02-22T12:42:33.387Z,13.32
2019-02-22T12:43:33.390Z,13.58
2019-02-22T12:44:33.328Z,13.53
2019-02-22T12:45:33.320Z,13.71
2019-02-22T12:46:33.317Z,13.80
2019-02-22T12:47:33.315Z,13.63
2019-02-22T12:48:33.284Z,13.63
2019-02-22T12:49:33.318Z,13.51
2019-02-22T12:50:33.274Z,13.35
2019-02-22T12:51:33.258Z,13.36
2019-02-22T12:52:33.241Z,13.42
2019-02-22T12:53:33.248Z,13.55
2019-02-22T12:54:33.255Z,13.55
2019-02-22T12:55:33.248Z,13.60
2019-02-22T12:56:58.642Z,13.78
2019-02-22T12:57:34.280Z,13.57
2019-02-22T12:58:33.175Z,13.60
2019-02-22T12:59:33.196Z,14.00
2019-02-22T13:00:33.178Z,14.82
2019-02-22T13:01:33.180Z,15.30
2019-02-22T13:02:33.133Z,16.08
2019-02-22T13:03:33.121Z,16.67
2019-02-22T13:04:33.129Z,17.22
2019-02-22T13:05:33.093Z,17.72
2019-02-22T13:06:33.081Z,17.83
2019-02-22T13:07:33.116Z,17.17
2019-02-22T13:08:33.073Z,17.88
2019-02-22T13:09:36.857Z,18.23
2019-02-22T13:10:33.038Z,18.67
2019-02-22T13:11:33.048Z,19.12
2019-02-22T13:12:33.016Z,19.38